Time;durP1;ratioP1;P1;durP2;ratioP2;P2;SDS_P1;SDS_P2;PMS_P1;PMS_P2;Temp;Humidity;BMP_temperature;BMP_pressure;BME280_temperature;BME280_humidity;BME280_pressure;Samples;Min_cycle;Max_cycle;Signal;HPM_P1;HPM_P2
2021/03/03 00:00:33;;;;;;;69.22;45.12;;;;;;;1.26;80.64;102045.77;1709794;79;25334;-74
2021/03/03 00:03:00;;;;;;;72.15;48.45;;;;;;;1.26;80.90;102042.73;1763179;79;25970;-74
2021/03/03 00:05:26;;;;;;;90.03;51.88;;;;;;;1.28;80.96;102047.38;1763012;79;25805;-74
2021/03/03 00:07:52;;;;;;;76.65;48.80;;;;;;;1.32;81.18;102049.38;1764258;79;25407;-74
2021/03/03 00:10:19;;;;;;;79.15;47.48;;;;;;;1.33;81.22;102051.03;1761273;80;25802;-74
2021/03/03 00:12:45;;;;;;;75.52;47.25;;;;;;;1.32;81.37;102048.92;1749963;80;25779;-73
2021/03/03 00:15:12;;;;;;;69.95;45.73;;;;;;;1.35;81.54;102044.09;1749739;80;25666;-74
2021/03/03 00:17:39;;;;;;;74.37;47.23;;;;;;;1.38;81.64;102041.84;1751443;80;25810;-74
2021/03/03 00:20:07;;;;;;;74.15;45.92;;;;;;;1.40;81.70;102043.45;1749570;80;25696;-73
2021/03/03 00:22:33;;;;;;;70.08;42.83;;;;;;;1.41;81.67;102041.25;1767506;79;25784;-73
2021/03/03 00:25:00;;;;;;;70.80;45.20;;;;;;;1.39;81.74;102035.34;1755483;80;26071;-73
2021/03/03 00:27:26;;;;;;;74.05;45.70;;;;;;;1.40;81.89;102034.44;1769271;79;25703;-73
2021/03/03 00:29:52;;;;;;;71.33;45.52;;;;;;;1.50;82.20;102029.29;1767611;79;26194;-73
2021/03/03 00:32:18;;;;;;;72.65;47.62;;;;;;;1.64;82.35;102026.58;1768887;78;25625;-73
2021/03/03 00:34:45;;;;;;;72.32;48.17;;;;;;;1.76;82.27;102024.74;1766865;79;25311;-73
2021/03/03 00:37:11;;;;;;;80.17;51.92;;;;;;;1.82;82.21;102022.34;1768506;78;25781;-73
2021/03/03 00:39:37;;;;;;;81.02;53.15;;;;;;;1.84;82.12;102021.84;1767815;79;25873;-73
2021/03/03 00:42:04;;;;;;;86.47;53.90;;;;;;;1.89;82.26;102014.28;1729640;80;27735;-73
2021/03/03 00:44:31;;;;;;;84.80;51.73;;;;;;;1.96;82.26;102026.01;1719987;80;26571;-73
2021/03/03 00:46:57;;;;;;;68.37;44.80;;;;;;;1.98;82.05;102024.17;1750169;80;25921;-73
2021/03/03 00:49:24;;;;;;;79.55;48.70;;;;;;;1.88;81.71;102020.78;1750499;80;25753;-73
2021/03/03 00:51:50;;;;;;;87.15;54.13;;;;;;;1.66;81.59;102028.16;1749857;80;25820;-73
2021/03/03 00:54:19;;;;;;;87.57;54.05;;;;;;;1.68;82.06;102033.27;1748810;80;25936;-73
2021/03/03 00:56:47;;;;;;;82.33;49.45;;;;;;;1.73;82.15;102030.03;1721075;80;25338;-73
2021/03/03 00:59:13;;;;;;;65.97;43.87;;;;;;;1.75;82.22;102035.52;1750503;80;25790;-73
2021/03/03 01:01:40;;;;;;;68.07;46.13;;;;;;;1.81;82.23;102033.12;1750745;80;25741;-73
2021/03/03 01:04:08;;;;;;;68.87;44.93;;;;;;;1.76;82.03;102029.90;1766867;79;25780;-73
2021/03/03 01:06:36;;;;;;;78.17;49.48;;;;;;;1.73;82.20;102032.16;1734569;81;26765;-73
2021/03/03 01:09:03;;;;;;;83.87;51.90;;;;;;;1.73;82.20;102032.16;1762655;79;25882;-73
2021/03/03 01:11:31;;;;;;;83.10;51.83;;;;;;;1.79;82.28;102025.89;1750186;80;25347;-73
2021/03/03 01:13:59;;;;;;;81.05;51.13;;;;;;;1.67;81.96;102013.56;1749937;80;25853;-73
2021/03/03 01:16:26;;;;;;;79.50;49.88;;;;;;;1.57;82.13;102013.10;1749741;80;26418;-74
2021/03/03 01:18:54;;;;;;;72.87;45.78;;;;;;;1.62;82.55;102005.19;1748767;80;26130;-73
2021/03/03 01:21:21;;;;;;;77.55;47.40;;;;;;;1.62;82.41;101998.74;1762962;80;25316;-73
2021/03/03 01:23:47;;;;;;;83.35;50.98;;;;;;;1.46;82.34;101986.51;1742906;80;26306;-73
2021/03/03 01:26:13;;;;;;;77.22;47.93;;;;;;;1.55;82.58;101997.73;1764794;79;25813;-73
2021/03/03 01:28:39;;;;;;;80.07;49.38;;;;;;;1.58;82.57;101995.89;1765246;79;25635;-73
2021/03/03 01:31:05;;;;;;;73.47;45.53;;;;;;;1.55;82.52;101991.71;1764428;79;33220;-73
2021/03/03 01:33:32;;;;;;;85.32;50.63;;;;;;;1.49;82.50;101999.71;1763703;79;25498;-73
2021/03/03 01:35:58;;;;;;;77.05;46.90;;;;;;;1.44;82.56;101997.78;1764164;79;25719;-74
2021/03/03 01:38:25;;;;;;;67.58;43.28;;;;;;;1.43;82.69;101987.93;1765883;79;25677;-74
2021/03/03 01:40:52;;;;;;;74.45;44.30;;;;;;;1.47;82.80;101989.91;1765159;79;25773;-73
2021/03/03 01:43:18;;;;;;;75.67;46.20;;;;;;;1.49;82.79;101988.95;1764807;79;25720;-73
2021/03/03 01:45:45;;;;;;;93.80;52.45;;;;;;;1.51;82.83;101982.00;1765501;79;25748;-73
2021/03/03 01:48:11;;;;;;;82.53;50.17;;;;;;;1.55;82.86;101971.96;1764401;79;25990;-73
2021/03/03 01:50:39;;;;;;;80.07;48.58;;;;;;;1.49;82.71;101961.89;1766044;79;25715;-73
2021/03/03 01:53:07;;;;;;;85.95;52.65;;;;;;;1.60;82.82;101983.79;1763881;79;25712;-72
2021/03/03 01:55:33;;;;;;;97.55;55.70;;;;;;;1.59;82.84;101975.69;1764417;79;25723;-73
2021/03/03 01:58:01;;;;;;;94.90;55.88;;;;;;;1.61;83.05;101972.14;1750765;80;25759;-73
2021/03/03 02:00:27;;;;;;;90.60;52.13;;;;;;;1.70;83.21;101972.19;1756187;79;25328;-73
2021/03/03 02:02:54;;;;;;;97.88;54.67;;;;;;;1.71;83.02;101975.97;1763803;79;25766;-73
2021/03/03 02:05:20;;;;;;;94.55;53.30;;;;;;;1.68;82.79;101971.41;1764536;79;26001;-73
2021/03/03 02:08:19;;;;;;;93.50;52.85;;;;;;;1.72;83.10;101963.94;1764624;79;26385;-73
2021/03/03 02:11:20;;;;;;;91.97;50.17;;;;;;;1.80;83.12;101961.86;1765429;79;25755;-74
2021/03/03 02:13:51;;;;;;;;;;;;;;;1.86;83.09;101960.74;1740607;80;25897;-74
2021/03/03 02:16:19;;;;;;;109.50;59.50;;;;;;;1.84;82.65;101953.52;1770746;80;25920;-74
2021/03/03 02:18:47;;;;;;;106.32;58.95;;;;;;;1.78;82.82;101956.75;1734841;80;25760;-74
2021/03/03 02:21:39;;;;;;;103.27;58.85;;;;;;;1.81;82.86;101963.52;1736541;80;25747;-74
2021/03/03 02:24:14;;;;;;;103.78;59.65;;;;;;;1.81;82.86;101963.52;1772878;80;25390;-73
2021/03/03 02:26:42;;;;;;;98.37;57.48;;;;;;;1.81;82.92;101963.98;1728258;82;25870;-74
2021/03/03 02:29:13;;;;;;;101.87;57.83;;;;;;;1.78;82.92;101966.23;1760255;80;25454;-74
2021/03/03 02:31:42;;;;;;;103.47;59.53;;;;;;;1.76;82.91;101967.58;1728456;82;25815;-74
2021/03/03 02:34:09;;;;;;;105.20;57.60;;;;;;;1.78;83.06;101959.79;1754937;80;25917;-74
2021/03/03 02:36:39;;;;;;;92.95;53.60;;;;;;;1.83;83.11;101958.27;1740519;80;26095;-74
2021/03/03 02:39:06;;;;;;;102.80;56.65;;;;;;;1.86;83.09;101961.58;1739115;80;25348;-74
2021/03/03 02:41:35;;;;;;;94.95;53.30;;;;;;;1.88;82.94;101958.48;1714005;81;25783;-74
2021/03/03 02:44:04;;;;;;;87.17;50.55;;;;;;;1.90;82.90;101969.99;1735838;80;25564;-74
2021/03/03 02:46:34;;;;;;;91.40;52.27;;;;;;;1.90;82.81;101969.99;1736432;81;25693;-73
2021/03/03 02:49:04;;;;;;;104.95;57.27;;;;;;;1.83;82.54;101959.14;1736249;81;25891;-73
2021/03/03 02:51:30;;;;;;;;;;;;;;;1.81;82.80;101963.52;1759098;79;25805;-73
2021/03/03 02:53:57;;;;;;;94.28;53.45;;;;;;;1.84;82.83;101957.39;1771413;79;25630;-74
2021/03/03 02:56:25;;;;;;;101.65;55.70;;;;;;;1.83;82.85;101972.45;1759913;80;25893;-73
2021/03/03 02:58:52;;;;;;;102.22;54.48;;;;;;;1.69;82.83;101959.75;1759454;80;25632;-74
2021/03/03 03:01:22;;;;;;;101.15;54.20;;;;;;;1.69;82.83;101959.75;1760669;80;25762;-73
2021/03/03 03:04:01;;;;;;;93.35;51.35;;;;;;;1.65;82.83;101956.08;1775383;79;25830;-73
2021/03/03 03:06:37;;;;;;;94.47;51.18;;;;;;;1.69;83.08;101964.91;1775824;79;25917;-74
2021/03/03 03:09:07;;;;;;;96.90;54.35;;;;;;;1.78;83.24;101967.52;1773367;79;26475;-75
2021/03/03 03:11:39;;;;;;;100.87;54.75;;;;;;;1.87;83.18;101957.25;1775408;79;25769;-75
2021/03/03 03:14:09;;;;;;;103.12;57.75;;;;;;;1.82;82.88;101954.04;1773652;79;25702;-75
2021/03/03 03:16:38;;;;;;;97.78;56.18;;;;;;;1.86;83.27;101953.84;1773437;79;25883;-74
2021/03/03 03:19:09;;;;;;;106.67;59.35;;;;;;;1.92;83.06;101957.42;1759072;80;25789;-74
2021/03/03 03:21:39;;;;;;;89.97;51.53;;;;;;;1.96;83.18;101960.26;1773082;79;25680;-75
2021/03/03 03:24:07;;;;;;;87.62;51.02;;;;;;;1.95;82.98;101965.02;1726171;81;25686;-74
2021/03/03 03:26:36;;;;;;;101.75;54.98;;;;;;;1.84;82.68;101965.13;1757173;80;25808;-74
2021/03/03 03:29:06;;;;;;;105.12;57.10;;;;;;;1.72;82.58;101963.48;1773541;79;25788;-74
2021/03/03 03:31:33;;;;;;;98.45;53.05;;;;;;;1.71;82.92;101963.53;1779958;79;25760;-74
2021/03/03 03:34:00;;;;;;;97.53;53.25;;;;;;;1.67;82.87;101960.27;1724134;81;25427;-74
2021/03/03 03:36:28;;;;;;;87.12;48.25;;;;;;;1.68;83.07;101955.95;1754324;79;26486;-75
2021/03/03 03:38:54;;;;;;;82.85;44.63;;;;;;;1.72;83.15;101956.20;1741946;80;25800;-74
2021/03/03 03:41:22;;;;;;;84.75;46.20;;;;;;;1.67;82.98;101952.99;1753857;79;25530;-75
2021/03/03 03:43:49;;;;;;;81.53;44.40;;;;;;;1.51;83.13;101939.94;1741040;80;26796;-75
2021/03/03 03:46:16;;;;;;;72.47;42.33;;;;;;;1.63;83.06;101954.02;1741760;79;25765;-75
2021/03/03 03:48:44;;;;;;;75.72;42.08;;;;;;;1.61;82.99;101957.97;1755047;80;25680;-75
2021/03/03 03:51:10;;;;;;;73.95;43.55;;;;;;;1.60;83.18;101950.30;1772577;79;25759;-75
2021/03/03 03:53:37;;;;;;;72.97;41.05;;;;;;;1.61;83.23;101951.95;1773017;79;25356;-75
2021/03/03 03:56:09;;;;;;;77.82;43.30;;;;;;;1.62;83.27;101948.03;1773094;79;26299;-75
2021/03/03 03:58:35;;;;;;;75.78;44.15;;;;;;;1.61;83.28;101947.66;1772815;79;25692;-75
2021/03/03 04:01:02;;;;;;;79.53;43.45;;;;;;;1.54;83.06;101949.66;1773621;79;25743;-74
2021/03/03 04:03:31;;;;;;;78.35;41.25;;;;;;;1.50;83.03;101944.69;1772928;79;25314;-75
2021/03/03 04:05:59;;;;;;;82.08;46.08;;;;;;;1.40;82.96;101941.70;1773461;79;31019;-75
2021/03/03 04:08:26;;;;;;;83.52;44.67;;;;;;;1.39;83.12;101940.47;1773046;79;26363;-75
2021/03/03 04:10:52;;;;;;;88.00;46.48;;;;;;;1.38;83.23;101939.63;1772901;79;25718;-75
2021/03/03 04:13:19;;;;;;;87.47;46.80;;;;;;;1.39;83.32;101945.19;1773204;79;25959;-75
2021/03/03 04:15:46;;;;;;;78.92;44.45;;;;;;;1.42;83.54;101946.34;1766469;79;25321;-74
2021/03/03 04:18:14;;;;;;;88.50;46.68;;;;;;;1.52;83.55;101939.86;1764785;79;25688;-74
2021/03/03 04:20:43;;;;;;;81.25;44.85;;;;;;;1.52;83.55;101939.86;1765394;79;25632;-75
2021/03/03 04:23:10;;;;;;;84.55;44.83;;;;;;;1.57;83.77;101940.95;1764258;79;25648;-75
2021/03/03 04:25:37;;;;;;;84.37;45.25;;;;;;;1.59;83.60;101939.16;1764207;79;25622;-75
2021/03/03 04:28:06;;;;;;;89.37;47.05;;;;;;;1.57;83.59;101934.97;1764825;78;25770;-75
2021/03/03 04:30:33;;;;;;;85.47;46.30;;;;;;;1.62;83.72;101936.89;1766223;79;25350;-75
2021/03/03 04:33:00;;;;;;;83.25;43.90;;;;;;;1.57;83.73;101940.12;1763632;78;25775;-75
2021/03/03 04:35:26;;;;;;;86.87;46.37;;;;;;;1.57;83.73;101940.12;1765458;79;25471;-75
2021/03/03 04:37:52;;;;;;;90.97;45.50;;;;;;;1.50;83.36;101940.83;1764667;79;25588;-75
2021/03/03 04:40:19;;;;;;;88.55;43.98;;;;;;;1.51;83.55;101931.75;1764197;79;25708;-75
2021/03/03 04:42:45;;;;;;;88.82;45.35;;;;;;;1.49;83.42;101931.44;1763522;79;25682;-75
2021/03/03 04:45:12;;;;;;;80.00;42.10;;;;;;;1.49;83.57;101927.11;1763099;79;25916;-75
2021/03/03 04:47:40;;;;;;;94.55;42.60;;;;;;;1.50;83.51;101926.23;1763820;79;25755;-74
2021/03/03 04:50:10;;;;;;;87.67;42.10;;;;;;;1.43;83.29;101925.27;1763541;79;25817;-75
2021/03/03 04:52:37;;;;;;;96.53;43.10;;;;;;;1.39;83.41;101927.58;1763966;79;25270;-75
2021/03/03 04:55:05;;;;;;;84.77;43.05;;;;;;;1.36;83.63;101923.86;1750965;80;26111;-75
2021/03/03 04:57:32;;;;;;;89.00;45.60;;;;;;;1.33;83.64;101923.53;1763012;79;25868;-75
2021/03/03 04:59:58;;;;;;;86.05;43.42;;;;;;;1.26;83.63;101921.69;1765304;79;25835;-75
2021/03/03 05:02:25;;;;;;;83.42;41.77;;;;;;;1.22;83.70;101920.59;1763855;79;25842;-75
2021/03/03 05:04:51;;;;;;;79.35;40.78;;;;;;;1.20;83.80;101919.81;1762980;79;25898;-75
2021/03/03 05:07:18;;;;;;;70.87;37.80;;;;;;;1.23;84.02;101915.39;1762923;79;25942;-75
2021/03/03 05:09:44;;;;;;;73.28;39.20;;;;;;;1.24;83.92;101912.36;1765976;79;25702;-75
2021/03/03 05:12:11;;;;;;;75.87;40.08;;;;;;;1.27;84.11;101912.22;1764668;79;25675;-75
2021/03/03 05:14:37;;;;;;;77.92;39.50;;;;;;;1.22;84.24;101898.70;1763571;79;25760;-75
2021/03/03 05:17:04;;;;;;;76.02;39.33;;;;;;;1.22;84.24;101898.70;1771652;79;25661;-75
2021/03/03 05:19:30;;;;;;;74.10;39.63;;;;;;;1.37;83.92;101919.11;1772437;79;25355;-75
2021/03/03 05:21:57;;;;;;;85.62;41.23;;;;;;;1.33;83.83;101911.95;1772234;79;26529;-75
2021/03/03 05:24:23;;;;;;;84.35;41.95;;;;;;;1.31;83.89;101907.34;1758111;80;26007;-75
2021/03/03 05:26:49;;;;;;;83.47;41.02;;;;;;;1.37;83.97;101915.25;1733048;80;25573;-75
2021/03/03 05:29:16;;;;;;;85.83;39.73;;;;;;;1.21;83.81;101890.60;1770293;79;25385;-74
2021/03/03 05:31:44;;;;;;;79.37;41.18;;;;;;;1.32;83.99;101917.55;1772130;79;25733;-74
2021/03/03 05:34:10;;;;;;;74.82;40.63;;;;;;;1.31;83.92;101919.76;1741542;79;26621;-74
2021/03/03 05:36:36;;;;;;;85.12;42.93;;;;;;;1.25;83.90;101913.56;1759182;80;25709;-74
2021/03/03 05:39:04;;;;;;;74.87;37.73;;;;;;;1.21;83.83;101913.78;1757726;80;25626;-74
2021/03/03 05:41:30;;;;;;;71.95;38.53;;;;;;;1.17;83.96;101919.49;1769412;79;25718;-74
2021/03/03 05:43:56;;;;;;;70.90;37.17;;;;;;;1.16;83.96;101924.27;1771667;79;26231;-74
2021/03/03 05:46:24;;;;;;;68.78;35.88;;;;;;;1.15;83.99;101925.64;1772608;79;25784;-77
2021/03/03 05:48:55;;;;;;;68.10;36.68;;;;;;;1.16;84.00;101928.59;1775335;79;25762;-74
2021/03/03 05:51:24;;;;;;;69.70;36.65;;;;;;;1.13;83.89;101921.83;1772322;79;26384;-74
2021/03/03 05:53:51;;;;;;;73.10;36.65;;;;;;;1.11;83.95;101913.33;1752645;80;26789;-74
2021/03/03 05:56:25;;;;;;;68.37;36.00;;;;;;;1.14;84.06;101913.19;1772380;79;25697;-74
2021/03/03 05:58:51;;;;;;;72.35;36.50;;;;;;;1.14;83.97;101919.62;1771308;79;25811;-75
2021/03/03 06:01:17;;;;;;;73.12;38.13;;;;;;;1.11;83.91;101914.61;1746829;79;26353;-75
2021/03/03 06:03:45;;;;;;;75.97;37.38;;;;;;;1.10;84.07;101913.78;1772688;79;26384;-74
2021/03/03 06:06:12;;;;;;;72.10;39.23;;;;;;;1.08;84.12;101914.29;1772456;79;25918;-74
2021/03/03 06:08:39;;;;;;;68.90;35.85;;;;;;;1.08;84.20;101917.33;1771311;79;25789;-74
2021/03/03 06:11:05;;;;;;;67.92;37.75;;;;;;;1.11;84.32;101917.19;1770531;79;26367;-74
2021/03/03 06:13:33;;;;;;;63.08;32.08;;;;;;;1.10;84.25;101919.39;1773378;79;25309;-74
2021/03/03 06:15:59;;;;;;;68.30;35.68;;;;;;;1.09;84.27;101917.70;1765554;79;25687;-75
2021/03/03 06:18:26;;;;;;;63.92;35.95;;;;;;;0.96;84.04;101916.11;1763059;79;25713;-74
2021/03/03 06:20:56;;;;;;;63.08;34.03;;;;;;;0.95;84.21;101907.16;1765714;79;25884;-75
2021/03/03 06:23:26;;;;;;;71.45;36.42;;;;;;;0.92;84.23;101902.97;1762111;79;25639;-75
2021/03/03 06:26:04;;;;;;;71.85;37.48;;;;;;;0.92;84.32;101900.39;1760910;79;25485;-74
2021/03/03 06:28:35;;;;;;;76.82;37.73;;;;;;;0.94;84.50;101908.90;1762969;79;27179;-74
2021/03/03 06:31:24;;;;;;;72.20;38.90;;;;;;;1.02;84.76;101909.86;1759528;79;25846;-74
2021/03/03 06:33:54;;;;;;;67.72;35.25;;;;;;;1.04;84.81;101913.22;1762575;79;25385;-74
2021/03/03 06:36:42;;;;;;;;;;;;;;;0.99;84.54;101909.55;1767079;79;25667;-74
2021/03/03 06:39:27;;;;;;;69.65;34.75;;;;;;;0.97;84.70;101901.50;1683664;83;25774;-72
2021/03/03 06:42:01;;;;;;;73.35;36.77;;;;;;;1.04;84.93;101905.50;1683139;83;27129;-71
2021/03/03 06:44:50;;;;;;;72.17;36.13;;;;;;;1.14;85.11;101904.64;1684320;83;25904;-71
2021/03/03 06:47:18;;;;;;;63.78;34.63;;;;;;;1.18;84.93;101899.75;1684401;83;25864;-72
2021/03/03 06:49:46;;;;;;;68.25;34.98;;;;;;;1.18;84.74;101895.89;1662226;83;26945;-71
2021/03/03 06:52:12;;;;;;;74.92;38.90;;;;;;;1.18;84.74;101895.89;1683165;83;25854;-71
2021/03/03 06:54:39;;;;;;;77.40;40.17;;;;;;;1.13;84.55;101887.06;1684163;83;26570;-72
2021/03/03 06:57:08;;;;;;;73.85;35.98;;;;;;;1.17;84.79;101893.74;1684617;83;25920;-73
2021/03/03 06:59:36;;;;;;;65.52;35.88;;;;;;;1.19;84.96;101887.25;1682399;83;25735;-73
2021/03/03 07:02:13;;;;;;;68.57;36.53;;;;;;;1.18;84.79;101889.45;1683479;83;25851;-72
2021/03/03 07:04:45;;;;;;;64.70;32.20;;;;;;;1.17;84.91;101885.19;1683496;83;26018;-73
2021/03/03 07:07:16;;;;;;;54.05;29.65;;;;;;;1.21;84.93;101884.17;1682107;83;26355;-72
2021/03/03 07:09:53;;;;;;;53.02;28.87;;;;;;;1.19;84.75;101881.64;1684844;83;25769;-72
2021/03/03 07:12:29;;;;;;;57.98;31.30;;;;;;;1.13;84.65;101879.80;1681944;83;25813;-70
2021/03/03 07:15:07;;;;;;;59.10;33.33;;;;;;;1.08;84.68;101874.84;1682879;83;26198;-72
2021/03/03 07:17:41;;;;;;;52.75;29.65;;;;;;;1.03;84.75;101871.17;1717960;81;25747;-73
2021/03/03 07:20:14;;;;;;;60.63;29.65;;;;;;;1.04;84.94;101866.88;1720017;81;26458;-71
2021/03/03 07:22:53;;;;;;;63.63;31.00;;;;;;;1.05;84.99;101864.22;1719365;81;25847;-71
2021/03/03 07:25:21;;;;;;;56.88;31.60;;;;;;;1.03;85.06;101867.30;1715330;81;25915;-69
2021/03/03 07:27:50;;;;;;;62.80;32.83;;;;;;;1.11;85.24;101869.09;1718610;81;25910;-70
2021/03/03 07:30:25;;;;;;;65.92;33.92;;;;;;;1.11;85.19;101863.95;1718816;81;25719;-71
2021/03/03 07:32:51;;;;;;;63.75;33.78;;;;;;;1.19;85.38;101857.18;1691810;81;25837;-72
2021/03/03 07:35:18;;;;;;;67.85;31.85;;;;;;;1.19;85.25;101868.77;1690605;81;25800;-70
2021/03/03 07:37:54;;;;;;;59.85;31.93;;;;;;;1.23;85.32;101869.49;1719370;81;25832;-69
2021/03/03 07:40:27;;;;;;;58.23;30.57;;;;;;;1.21;85.38;101870.83;1717037;81;25813;-69
2021/03/03 07:42:56;;;;;;;55.50;30.25;;;;;;;1.29;85.31;101862.78;1720136;81;26369;-74
2021/03/03 07:45:38;;;;;;;48.90;27.52;;;;;;;1.29;85.31;101862.78;1720117;81;25935;-74
2021/03/03 07:48:10;;;;;;;58.05;29.63;;;;;;;1.34;85.56;101860.84;1717848;81;26380;-73
2021/03/03 07:50:52;;;;;;;56.68;29.18;;;;;;;1.46;85.80;101863.30;1719114;81;25998;-72
2021/03/03 07:53:19;;;;;;;57.03;30.35;;;;;;;1.54;85.76;101863.80;1718776;81;25834;-74
2021/03/03 07:55:45;;;;;;;52.88;29.42;;;;;;;1.64;85.84;101863.77;1692005;81;26171;-74
2021/03/03 07:58:12;;;;;;;58.02;29.00;;;;;;;1.72;85.61;101866.00;1696347;81;25769;-75
2021/03/03 08:00:41;;;;;;;56.95;31.45;;;;;;;1.72;85.45;101861.67;1719286;81;25783;-74
2021/03/03 08:03:07;;;;;;;54.85;27.55;;;;;;;1.74;85.42;101876.59;1719644;81;25957;-71
2021/03/03 08:05:36;;;;;;;56.20;30.30;;;;;;;1.78;85.44;101867.00;1716173;81;26638;-72
2021/03/03 08:08:23;;;;;;;53.40;28.62;;;;;;;1.77;85.36;101867.88;1718672;81;25744;-72
2021/03/03 08:10:46;;;;;;;67.80;28.80;;;;;;;1.78;85.51;101867.00;1688997;81;46826;-74
2021/03/03 08:13:20;;;;;;;53.00;28.95;;;;;;;1.80;85.46;101860.47;1719667;81;26499;-74
2021/03/03 08:15:54;;;;;;;56.33;28.38;;;;;;;1.80;85.50;101854.88;1718773;81;25805;-73
2021/03/03 08:18:30;;;;;;;50.52;27.52;;;;;;;1.83;85.51;101855.16;1688591;81;25765;-72
2021/03/03 08:21:01;;;;;;;48.50;26.25;;;;;;;1.86;85.55;101850.72;1718188;81;26562;-71
2021/03/03 08:23:44;;;;;;;46.65;27.35;;;;;;;1.86;85.67;101848.60;1719939;81;31098;-72
2021/03/03 08:26:22;;;;;;;44.23;25.70;;;;;;;1.87;85.40;101844.65;1720398;81;25832;-72
2021/03/03 08:28:53;;;;;;;50.85;27.30;;;;;;;1.85;85.25;101843.87;1718831;81;26057;-71
2021/03/03 08:31:24;;;;;;;52.25;30.00;;;;;;;1.83;85.37;101835.83;1720134;81;25796;-71
2021/03/03 08:33:55;;;;;;;50.23;27.58;;;;;;;1.82;85.25;101835.46;1719662;81;25783;-71
2021/03/03 08:36:28;;;;;;;53.05;29.02;;;;;;;1.79;85.30;101831.28;1718790;81;26376;-72
2021/03/03 08:39:01;;;;;;;52.10;28.40;;;;;;;1.82;85.62;101832.42;1718859;81;25721;-72
2021/03/03 08:41:33;;;;;;;64.92;33.05;;;;;;;1.89;85.71;101829.13;1718877;81;26142;-72
2021/03/03 08:44:10;;;;;;;56.23;29.87;;;;;;;1.93;85.75;101828.88;1718834;81;25873;-69
2021/03/03 08:46:46;;;;;;;57.33;31.20;;;;;;;2.02;85.89;101826.77;1719338;81;25707;-70
2021/03/03 08:49:18;;;;;;;50.10;28.42;;;;;;;2.10;85.67;101824.66;1720254;82;25720;-73
2021/03/03 08:51:49;;;;;;;55.83;31.20;;;;;;;2.10;85.67;101824.66;1719017;82;25773;-73
2021/03/03 08:54:20;;;;;;;56.48;32.95;;;;;;;2.08;85.50;101820.89;1720179;82;26495;-72
2021/03/03 08:56:53;;;;;;;61.73;33.50;;;;;;;2.07;85.59;101822.23;1720744;81;25729;-73
2021/03/03 08:59:40;;;;;;;57.03;30.82;;;;;;;2.04;85.52;101827.08;1719718;82;25726;-73
2021/03/03 09:02:18;;;;;;;54.88;30.68;;;;;;;1.96;85.45;101821.03;1714605;82;26339;-74
2021/03/03 09:04:54;;;;;;;52.88;30.02;;;;;;;1.93;85.62;101821.61;1719712;82;26598;-73
2021/03/03 09:07:31;;;;;;;48.98;28.38;;;;;;;1.91;85.71;101819.55;1720618;82;25854;-74
2021/03/03 09:10:05;;;;;;;49.30;28.38;;;;;;;1.92;85.79;101810.47;1719114;82;25721;-75
2021/03/03 09:12:35;;;;;;;53.08;28.80;;;;;;;1.93;85.86;101808.25;1718266;82;26242;-73
2021/03/03 09:15:05;;;;;;;57.00;30.37;;;;;;;1.96;85.92;101810.72;1719671;82;25769;-72
2021/03/03 09:17:34;;;;;;;58.48;30.62;;;;;;;2.00;86.06;101809.64;1719697;82;25358;-72
2021/03/03 09:20:08;;;;;;;50.10;29.60;;;;;;;2.03;86.08;101797.06;1719798;82;25747;-75
2021/03/03 09:22:38;;;;;;;50.73;29.02;;;;;;;2.12;86.17;101788.03;1716933;82;25801;-73
2021/03/03 09:25:20;;;;;;;43.20;26.20;;;;;;;2.12;86.05;101780.30;1719739;82;25884;-73
2021/03/03 09:27:56;;;;;;;46.73;27.67;;;;;;;2.18;86.12;101779.98;1718355;82;26357;-73
2021/03/03 09:30:26;;;;;;;52.27;30.35;;;;;;;2.13;86.22;101756.20;1720183;82;25634;-72
2021/03/03 09:32:54;;;;;;;50.75;30.05;;;;;;;2.33;86.17;101776.66;1719543;81;25803;-71
2021/03/03 09:35:29;;;;;;;51.40;29.20;;;;;;;2.38;85.97;101775.16;1720965;82;25842;-72
2021/03/03 09:37:56;;;;;;;53.38;29.98;;;;;;;2.39;86.11;101773.77;1667688;82;25881;-71
2021/03/03 09:40:29;;;;;;;50.58;29.75;;;;;;;2.39;86.11;101773.77;1719299;82;25827;-71
2021/03/03 09:42:55;;;;;;;58.92;31.62;;;;;;;2.37;86.11;101761.42;1718815;81;25305;-72
2021/03/03 09:45:24;;;;;;;62.85;33.48;;;;;;;2.52;86.16;101766.25;1719877;82;25741;-72
2021/03/03 09:47:51;;;;;;;59.13;32.08;;;;;;;2.52;86.16;101766.25;1720024;82;25986;-70
2021/03/03 09:50:22;;;;;;;54.80;31.85;;;;;;;2.54;86.14;101767.48;1719924;82;25798;-71
2021/03/03 09:52:50;;;;;;;57.17;33.08;;;;;;;2.56;86.10;101761.75;1719237;81;25753;-72
2021/03/03 09:55:20;;;;;;;61.85;33.53;;;;;;;2.59;86.17;101752.56;1719036;81;25901;-72
2021/03/03 09:57:53;;;;;;;92.45;35.43;;;;;;;2.70;86.30;101757.17;1692302;83;25742;-72
2021/03/03 10:00:26;;;;;;;61.18;33.00;;;;;;;2.87;86.25;101761.02;1720062;81;25822;-72
2021/03/03 10:03:01;;;;;;;54.15;30.77;;;;;;;2.87;86.25;101761.02;1719660;81;25686;-72
2021/03/03 10:05:33;;;;;;;56.65;31.30;;;;;;;2.78;86.09;101736.52;1719894;81;25803;-73
2021/03/03 10:08:15;;;;;;;51.68;30.92;;;;;;;3.01;85.62;101753.38;1720308;81;25381;-72
2021/03/03 10:10:52;;;;;;;53.00;30.52;;;;;;;3.01;85.62;101753.38;1718436;81;25787;-71
2021/03/03 10:13:20;;;;;;;54.53;30.10;;;;;;;3.06;85.95;101752.67;1715015;81;26614;-72
2021/03/03 10:15:47;;;;;;;53.78;32.03;;;;;;;3.14;85.87;101748.39;1718483;81;25755;-75
2021/03/03 10:18:13;;;;;;;54.13;31.00;;;;;;;3.15;85.90;101744.05;1719672;81;26228;-72
2021/03/03 10:20:53;;;;;;;56.13;33.25;;;;;;;3.15;85.90;101744.05;1720206;81;25352;-71
2021/03/03 10:23:23;;;;;;;50.73;31.68;;;;;;;3.19;85.83;101738.65;1715313;81;25739;-71
2021/03/03 10:26:04;;;;;;;55.35;34.18;;;;;;;3.22;85.66;101742.35;1720440;81;25815;-71
2021/03/03 10:28:31;;;;;;;55.70;34.43;;;;;;;3.20;85.56;101735.59;1719627;81;25993;-72
2021/03/03 10:31:04;;;;;;;58.25;34.13;;;;;;;3.24;85.76;101723.70;1719775;81;25774;-74
2021/03/03 10:33:40;;;;;;;54.83;33.18;;;;;;;3.24;85.76;101723.70;1720374;81;25798;-73
2021/03/03 10:36:17;;;;;;;54.42;33.58;;;;;;;3.27;85.84;101723.56;1719738;81;25736;-71
2021/03/03 10:38:53;;;;;;;62.35;34.80;;;;;;;3.35;85.97;101717.95;1720446;81;25723;-72
2021/03/03 10:41:27;;;;;;;55.25;33.90;;;;;;;3.44;85.97;101721.33;1720060;81;25747;-70
2021/03/03 10:43:54;;;;;;;56.70;34.25;;;;;;;3.47;86.10;101715.98;1719389;81;26312;-71
2021/03/03 10:46:24;;;;;;;55.48;32.30;;;;;;;3.48;85.55;101714.23;1720016;81;25823;-71
2021/03/03 10:48:51;;;;;;;53.30;34.13;;;;;;;3.48;85.64;101709.89;1720229;81;25873;-72
2021/03/03 10:51:21;;;;;;;54.40;33.67;;;;;;;3.54;85.58;101701.78;1719655;81;25819;-72
2021/03/03 10:53:54;;;;;;;56.45;34.83;;;;;;;3.54;85.43;101697.91;1720296;81;25916;-73
2021/03/03 10:56:34;;;;;;;55.67;33.42;;;;;;;3.58;85.61;101694.71;1720009;81;25995;-72
2021/03/03 10:59:09;;;;;;;56.58;33.20;;;;;;;3.66;85.87;101693.81;1719787;81;25290;-69
2021/03/03 11:01:49;;;;;;;55.20;33.05;;;;;;;3.80;85.92;101689.15;1719721;81;26093;-68
2021/03/03 11:04:15;;;;;;;54.98;35.00;;;;;;;3.86;85.48;101677.61;1719314;81;25855;-71
2021/03/03 11:06:42;;;;;;;61.77;36.28;;;;;;;3.87;85.47;101685.73;1720389;81;25744;-71
2021/03/03 11:09:15;;;;;;;58.50;36.53;;;;;;;3.89;85.25;101675.67;1719605;81;25760;-72
2021/03/03 11:11:57;;;;;;;58.42;34.58;;;;;;;3.92;85.31;101673.38;1721092;81;26348;-71
2021/03/03 11:14:26;;;;;;;58.08;35.85;;;;;;;3.99;85.33;101669.52;1718418;81;25779;-69
2021/03/03 11:16:52;;;;;;;62.23;37.73;;;;;;;4.04;85.39;101655.86;1718617;81;25796;-70
2021/03/03 11:19:19;;;;;;;59.23;36.45;;;;;;;4.08;85.32;101650.03;1719021;81;25836;-70
2021/03/03 11:21:46;;;;;;;61.28;36.80;;;;;;;4.06;85.10;101641.52;1720037;81;25681;-70
2021/03/03 11:24:13;;;;;;;56.55;36.17;;;;;;;4.06;85.21;101644.11;1700337;81;25898;-70
2021/03/03 11:26:44;;;;;;;57.40;34.73;;;;;;;4.10;85.20;101642.55;1720985;81;25862;-70
2021/03/03 11:29:12;;;;;;;54.15;33.80;;;;;;;4.13;85.20;101641.07;1718969;81;25301;-70